Time;durP1;ratioP1;P1;durP2;ratioP2;P2;SDS_P1;SDS_P2;PMS_P1;PMS_P2;Temp;Humidity;BMP_temperature;BMP_pressure;BME280_temperature;BME280_humidity;BME280_pressure;Samples;Min_cycle;Max_cycle;Signal;HPM_P1;HPM_P2
2022/02/18 00:00:37;;;;;;;13.40;2.28;;;;;;;3.22;91.98;99582.22;5035869;28;20025;-79
2022/02/18 00:03:02;;;;;;;17.88;4.97;;;;;;;3.32;91.10;99584.81;5037023;28;20075;-79
2022/02/18 00:05:28;;;;;;;16.48;2.47;;;;;;;3.36;90.09;99571.19;5018995;28;20485;-79
2022/02/18 00:07:53;;;;;;;16.10;3.97;;;;;;;3.43;89.20;99539.78;5019053;28;20046;-79
2022/02/18 00:10:19;;;;;;;11.90;2.17;;;;;;;3.39;88.64;99538.41;5035051;28;20029;-79
2022/02/18 00:12:45;;;;;;;9.63;1.40;;;;;;;3.40;88.42;99534.81;5019125;28;20283;-79
2022/02/18 00:15:12;;;;;;;8.82;2.90;;;;;;;3.45;87.86;99518.53;5021687;28;20105;-79
2022/02/18 00:17:38;;;;;;;17.33;3.05;;;;;;;3.50;87.52;99519.75;5001408;28;20050;-80
2022/02/18 00:20:05;;;;;;;20.75;4.35;;;;;;;3.36;87.99;99521.06;5015470;28;20026;-79
2022/02/18 00:22:30;;;;;;;14.10;1.90;;;;;;;3.29;88.96;99554.28;5015147;28;20049;-80
2022/02/18 00:24:56;;;;;;;19.20;2.03;;;;;;;3.17;89.56;99576.53;5015080;28;20519;-80
2022/02/18 00:27:21;;;;;;;14.50;3.30;;;;;;;3.19;90.03;99605.41;4998189;28;20285;-80
2022/02/18 00:29:46;;;;;;;14.73;3.33;;;;;;;3.15;90.95;99637.34;5014779;28;20084;-80
2022/02/18 00:32:12;;;;;;;24.63;4.60;;;;;;;3.05;91.44;99649.72;5031253;28;20554;-80
2022/02/18 00:34:39;;;;;;;23.33;2.90;;;;;;;3.23;92.00;99686.75;4998806;28;20168;-80
2022/02/18 00:37:05;;;;;;;21.38;2.92;;;;;;;3.21;92.50;99701.03;5014284;28;20053;-80
2022/02/18 00:39:32;;;;;;;17.58;2.70;;;;;;;3.20;92.78;99702.84;4997629;28;20033;-80
2022/02/18 00:41:57;;;;;;;15.68;2.95;;;;;;;3.17;93.06;99711.06;5014271;28;20038;-80
2022/02/18 00:44:23;;;;;;;14.82;4.07;;;;;;;3.17;93.17;99703.97;4997369;28;20254;-80
2022/02/18 00:46:50;;;;;;;17.07;4.40;;;;;;;3.11;93.36;99719.50;4998098;28;20137;-80
2022/02/18 00:49:16;;;;;;;26.23;4.57;;;;;;;3.12;93.56;99722.03;5013909;28;20279;-79
2022/02/18 00:51:42;;;;;;;19.80;3.35;;;;;;;3.08;93.79;99733.00;5014378;28;20081;-80
2022/02/18 00:54:07;;;;;;;28.63;4.10;;;;;;;3.06;94.17;99737.56;4998044;28;20144;-80
2022/02/18 00:56:34;;;;;;;23.83;4.47;;;;;;;3.17;94.23;99761.16;4998178;28;20096;-79
2022/02/18 00:59:02;;;;;;;21.13;4.80;;;;;;;3.32;93.95;99767.69;4997826;28;20029;-79
2022/02/18 01:01:28;;;;;;;25.80;5.85;;;;;;;3.30;93.79;99745.91;5014189;28;20053;-80
2022/02/18 01:03:57;;;;;;;18.45;3.70;;;;;;;3.45;93.95;99769.22;4997258;28;20076;-79
2022/02/18 01:06:22;;;;;;;30.92;5.80;;;;;;;3.33;93.83;99756.16;5029969;28;20257;-80
2022/02/18 01:08:47;;;;;;;35.77;5.17;;;;;;;3.10;93.79;99721.31;5013143;28;20034;-79
2022/02/18 01:11:13;;;;;;;23.47;5.57;;;;;;;3.24;94.25;99751.72;4996643;28;20339;-79
2022/02/18 01:13:38;;;;;;;27.57;3.77;;;;;;;3.18;94.45;99762.81;5015201;28;20091;-79
2022/02/18 01:16:04;;;;;;;19.75;3.10;;;;;;;3.27;94.60;99779.63;5017008;28;20123;-79
2022/02/18 01:18:29;;;;;;;33.45;5.60;;;;;;;3.33;94.43;99777.28;5034808;28;20033;-79
2022/02/18 01:20:55;;;;;;;32.60;5.00;;;;;;;3.28;94.44;99766.31;5016956;28;20044;-79
2022/02/18 01:23:20;;;;;;;40.37;5.23;;;;;;;3.25;94.43;99778.94;5033165;28;20116;-79
2022/02/18 01:25:46;;;;;;;20.38;5.28;;;;;;;3.23;94.60;99786.16;5033614;28;20116;-79
2022/02/18 01:28:11;;;;;;;25.60;4.50;;;;;;;3.26;94.86;99794.63;5033437;28;20549;-79
2022/02/18 01:30:37;;;;;;;17.60;4.27;;;;;;;3.17;94.95;99777.00;5032808;28;20033;-79
2022/02/18 01:33:03;;;;;;;35.30;4.30;;;;;;;3.33;94.59;99792.28;5032657;28;20311;-78
2022/02/18 01:35:32;;;;;;;20.63;3.00;;;;;;;3.31;94.52;99779.22;5016119;28;20045;-79
2022/02/18 01:37:57;;;;;;;;;;;;;;;3.25;94.32;99779.75;5049168;28;20031;-79
2022/02/18 01:40:23;;;;;;;25.02;6.15;;;;;;;3.12;94.61;99773.94;5032913;28;19917;-79
2022/02/18 01:42:49;;;;;;;31.55;6.68;;;;;;;3.26;94.64;99776.16;5034183;28;20029;-79
2022/02/18 01:45:16;;;;;;;26.20;3.50;;;;;;;3.21;94.55;99788.94;5051583;28;20040;-79
2022/02/18 01:47:42;;;;;;;29.88;3.92;;;;;;;3.19;94.64;99784.78;5016918;28;20060;-79
2022/02/18 01:50:08;;;;;;;30.20;3.78;;;;;;;3.07;94.59;99778.81;5032368;28;20041;-79
2022/02/18 01:52:37;;;;;;;23.52;3.35;;;;;;;3.16;94.55;99799.06;5016385;28;20026;-78
2022/02/18 01:55:10;;;;;;;17.30;4.10;;;;;;;3.18;94.56;99794.47;5015890;28;20067;-79
2022/02/18 01:57:40;;;;;;;28.63;5.38;;;;;;;3.15;94.29;99789.50;5015923;28;20091;-79
2022/02/18 02:00:07;;;;;;;25.08;4.38;;;;;;;3.08;94.16;99762.00;5048775;28;20835;-79
2022/02/18 02:02:40;;;;;;;22.25;3.78;;;;;;;3.09;93.87;99768.94;5034033;28;20032;-79
2022/02/18 02:05:06;;;;;;;35.10;3.60;;;;;;;3.05;94.06;99757.84;5032379;28;20033;-79
2022/02/18 02:07:34;;;;;;;35.97;4.03;;;;;;;3.01;93.71;99767.00;5033289;28;20056;-79
2022/02/18 02:10:00;;;;;;;24.42;4.85;;;;;;;3.04;93.93;99768.50;5031942;28;20371;-79
2022/02/18 02:12:25;;;;;;;26.85;6.68;;;;;;;2.86;93.65;99742.84;5048253;28;20043;-78
2022/02/18 02:14:53;;;;;;;26.98;4.32;;;;;;;2.88;93.59;99751.44;5003465;28;20122;-79
2022/02/18 02:17:24;;;;;;;24.83;4.18;;;;;;;2.71;93.90;99733.66;4997167;28;20033;-79
2022/02/18 02:19:50;;;;;;;29.97;4.77;;;;;;;2.82;94.06;99751.16;5011384;28;20499;-79
2022/02/18 02:22:22;;;;;;;26.10;4.47;;;;;;;2.71;94.36;99742.38;4995604;28;20682;-79
2022/02/18 02:24:48;;;;;;;16.58;3.38;;;;;;;2.76;94.74;99757.78;5012566;28;20033;-79
2022/02/18 02:27:14;;;;;;;35.92;5.13;;;;;;;2.78;94.85;99771.66;4995287;28;20021;-79
2022/02/18 02:29:39;;;;;;;26.90;4.50;;;;;;;2.71;95.42;99779.28;4995074;28;20141;-79
2022/02/18 02:32:05;;;;;;;25.30;3.90;;;;;;;2.65;95.57;99779.03;5011728;28;20061;-79
2022/02/18 02:34:33;;;;;;;25.92;4.95;;;;;;;2.59;96.13;99783.00;5012114;28;20036;-79
2022/02/18 02:36:59;;;;;;;17.02;4.30;;;;;;;2.50;96.51;99774.09;5011229;28;20037;-79
2022/02/18 02:39:25;;;;;;;24.63;3.92;;;;;;;2.53;96.78;99771.22;5011210;28;20124;-79
2022/02/18 02:41:50;;;;;;;37.50;5.50;;;;;;;2.53;97.22;99758.03;4995091;28;20309;-79
2022/02/18 02:44:15;;;;;;;27.90;5.30;;;;;;;2.46;97.91;99762.19;4995795;28;20030;-79
2022/02/18 02:46:41;;;;;;;31.50;6.90;;;;;;;2.45;98.31;99765.78;5031496;28;20413;-79
2022/02/18 02:49:26;;;;;;;16.15;5.05;;;;;;;2.28;98.87;99753.25;5019092;28;20033;-79
2022/02/18 02:51:52;;;;;;;19.33;3.72;;;;;;;2.37;99.50;99793.78;5035358;28;20486;-78
2022/02/18 02:54:18;;;;;;;30.02;4.75;;;;;;;2.38;100.00;99800.69;5018685;28;20041;-79
2022/02/18 02:56:46;;;;;;;37.40;7.07;;;;;;;2.31;100.00;99803.84;5034657;28;20045;-78
2022/02/18 02:59:24;;;;;;;30.40;4.90;;;;;;;2.40;100.00;99819.84;5020661;28;20030;-78
2022/02/18 03:01:51;;;;;;;23.50;3.58;;;;;;;2.42;100.00;99821.38;5035870;28;20030;-79
2022/02/18 03:04:17;;;;;;;24.83;4.35;;;;;;;2.52;100.00;99834.59;5018402;28;20422;-79
2022/02/18 03:06:42;;;;;;;30.13;4.00;;;;;;;2.49;100.00;99829.59;5035409;28;20056;-79
2022/02/18 03:09:10;;;;;;;35.47;5.72;;;;;;;2.43;100.00;99830.94;5017992;28;20025;-79
2022/02/18 03:11:50;;;;;;;24.85;5.43;;;;;;;2.44;100.00;99840.53;5020256;28;20037;-78
2022/02/18 03:14:21;;;;;;;26.35;4.75;;;;;;;2.37;100.00;99843.81;5050413;28;20037;-78
2022/02/18 03:17:02;;;;;;;18.77;3.75;;;;;;;2.33;100.00;99846.69;5051514;28;20036;-78
2022/02/18 03:19:27;;;;;;;42.10;7.07;;;;;;;2.34;100.00;99839.63;5017931;28;20041;-79
2022/02/18 03:21:54;;;;;;;41.22;6.00;;;;;;;2.38;100.00;99837.56;5018133;28;20044;-80
2022/02/18 03:24:21;;;;;;;33.00;6.80;;;;;;;2.61;100.00;99868.03;5017854;28;20091;-78
2022/02/18 03:26:49;;;;;;;30.70;4.43;;;;;;;2.67;100.00;99866.66;5034488;28;20029;-79
2022/02/18 03:29:15;;;;;;;26.95;3.75;;;;;;;2.65;100.00;99858.09;5017643;28;20458;-79
2022/02/18 03:31:54;;;;;;;32.13;4.78;;;;;;;2.70;100.00;99880.44;5019866;28;20068;-78
2022/02/18 03:34:21;;;;;;;33.97;4.60;;;;;;;2.81;100.00;99879.50;5017238;28;20053;-79
2022/02/18 03:36:47;;;;;;;29.77;4.38;;;;;;;2.77;100.00;99864.91;5034372;28;20113;-80
2022/02/18 03:39:13;;;;;;;34.80;5.78;;;;;;;2.79;100.00;99868.25;5033501;28;20029;-79
2022/02/18 03:41:40;;;;;;;20.17;4.05;;;;;;;2.83;100.00;99868.81;5017800;28;20060;-79
2022/02/18 03:44:08;;;;;;;25.55;3.92;;;;;;;2.73;100.00;99852.97;5033684;28;20052;-79
2022/02/18 03:46:43;;;;;;;23.38;4.50;;;;;;;2.79;100.00;99864.78;5033961;28;20037;-78
2022/02/18 03:49:08;;;;;;;27.45;4.22;;;;;;;2.82;100.00;99853.97;5016900;28;20040;-79
2022/02/18 03:51:33;;;;;;;26.40;4.77;;;;;;;2.73;100.00;99832.72;5017763;28;20079;-78
2022/02/18 03:53:59;;;;;;;31.33;4.03;;;;;;;2.75;100.00;99827.31;5033273;28;20072;-79
2022/02/18 03:56:25;;;;;;;27.02;3.80;;;;;;;2.76;100.00;99839.50;5017379;28;20048;-78
2022/02/18 03:58:54;;;;;;;26.45;5.28;;;;;;;2.64;100.00;99824.78;5017851;28;20037;-80
2022/02/18 04:01:20;;;;;;;26.95;2.95;;;;;;;2.68;100.00;99832.28;5015906;28;20128;-79
2022/02/18 04:03:45;;;;;;;20.23;5.10;;;;;;;2.69;100.00;99830.47;5033391;28;20062;-78
2022/02/18 04:06:29;;;;;;;21.23;3.58;;;;;;;2.74;100.00;99844.09;5034258;28;20352;-78
2022/02/18 04:09:03;;;;;;;21.20;2.95;;;;;;;2.75;100.00;99840.50;5017869;28;20147;-78
2022/02/18 04:11:43;;;;;;;15.23;4.22;;;;;;;2.78;100.00;99845.47;5033378;28;20402;-78
2022/02/18 04:14:10;;;;;;;32.80;5.25;;;;;;;2.72;100.00;99840.78;5017337;28;20482;-79
2022/02/18 04:16:36;;;;;;;23.20;4.10;;;;;;;2.70;100.00;99832.97;5017486;28;20026;-79
2022/02/18 04:19:09;;;;;;;29.30;4.90;;;;;;;2.80;100.00;99848.81;5033634;28;20063;-79
2022/02/18 04:21:43;;;;;;;30.02;4.93;;;;;;;2.77;100.00;99848.28;5033188;28;20448;-79
2022/02/18 04:24:16;;;;;;;21.83;4.23;;;;;;;2.63;100.00;99845.03;5018019;28;20088;-79
2022/02/18 04:26:42;;;;;;;24.90;4.10;;;;;;;2.72;100.00;99846.03;5017358;28;20491;-79
2022/02/18 04:29:09;;;;;;;32.13;4.87;;;;;;;2.73;100.00;99852.97;5016649;28;20471;-78
2022/02/18 04:31:36;;;;;;;46.92;6.85;;;;;;;2.79;100.00;99863.00;5017063;28;20276;-79
2022/02/18 04:34:01;;;;;;;31.90;6.03;;;;;;;2.69;100.00;99844.50;5033494;28;20034;-79
2022/02/18 04:36:26;;;;;;;28.60;4.73;;;;;;;2.77;100.00;99861.47;5033105;28;20025;-79
2022/02/18 04:38:52;;;;;;;30.47;6.60;;;;;;;2.62;100.00;99846.00;5016168;28;20405;-79
2022/02/18 04:41:17;;;;;;;30.80;3.70;;;;;;;2.77;100.00;99875.47;5032667;28;20119;-79
2022/02/18 04:43:42;;;;;;;26.27;3.67;;;;;;;2.79;100.00;99884.06;5016499;28;20350;-80
2022/02/18 04:46:08;;;;;;;24.87;3.53;;;;;;;2.71;100.00;99868.06;5016656;28;20038;-79
2022/02/18 04:48:33;;;;;;;38.50;5.27;;;;;;;2.77;100.00;99893.09;5016158;28;20128;-79
2022/02/18 04:50:58;;;;;;;23.00;4.43;;;;;;;2.70;100.00;99877.78;5033196;28;20794;-80
2022/02/18 04:53:24;;;;;;;19.97;4.47;;;;;;;2.71;100.00;99870.72;5015929;28;20049;-79
2022/02/18 04:55:49;;;;;;;30.67;4.78;;;;;;;2.74;100.00;99881.84;5032798;28;20494;-78
2022/02/18 04:58:15;;;;;;;28.77;4.97;;;;;;;2.70;100.00;99882.22;5034590;28;20032;-79
2022/02/18 05:00:40;;;;;;;30.60;5.67;;;;;;;2.67;100.00;99885.13;5016244;28;20038;-79
2022/02/18 05:03:05;;;;;;;27.27;5.33;;;;;;;2.66;100.00;99878.19;5016240;28;20029;-79
2022/02/18 05:05:31;;;;;;;25.93;3.70;;;;;;;2.65;100.00;99884.44;5016866;28;20117;-79
2022/02/18 05:07:56;;;;;;;33.47;4.63;;;;;;;2.68;100.00;99874.44;5036229;28;20280;-79
2022/02/18 05:10:22;;;;;;;26.20;3.70;;;;;;;2.65;100.00;99869.44;5017821;28;20653;-79
2022/02/18 05:12:47;;;;;;;23.63;3.37;;;;;;;2.64;100.00;99872.22;5016482;28;20066;-79
2022/02/18 05:15:12;;;;;;;27.17;3.43;;;;;;;2.73;100.00;99868.78;5016472;28;20065;-79
2022/02/18 05:17:38;;;;;;;25.88;2.80;;;;;;;2.69;100.00;99862.09;5034656;28;20034;-79
2022/02/18 05:20:04;;;;;;;21.87;2.87;;;;;;;2.73;100.00;99864.34;5016336;28;20132;-79
2022/02/18 05:22:29;;;;;;;19.13;3.35;;;;;;;2.70;100.00;99850.59;5050852;28;20645;-79
2022/02/18 05:24:54;;;;;;;20.63;3.97;;;;;;;2.68;100.00;99857.81;5017709;28;20033;-79
2022/02/18 05:27:20;;;;;;;29.47;4.60;;;;;;;2.66;100.00;99857.09;5016612;28;20127;-79
2022/02/18 05:29:45;;;;;;;23.13;3.55;;;;;;;2.66;100.00;99870.28;5016121;28;20284;-79
2022/02/18 05:32:11;;;;;;;23.87;4.10;;;;;;;2.69;100.00;99872.66;5016825;28;20073;-79
2022/02/18 05:34:36;;;;;;;32.17;3.67;;;;;;;2.65;100.00;99856.28;5033065;28;20021;-78
2022/02/18 05:37:03;;;;;;;19.98;3.97;;;;;;;2.77;100.00;99867.56;5016373;28;20109;-79
2022/02/18 05:39:28;;;;;;;26.88;5.90;;;;;;;2.68;100.00;99855.19;5016102;28;20116;-80
2022/02/18 05:41:54;;;;;;;16.67;4.33;;;;;;;2.76;100.00;99876.41;5016052;28;20053;-79
2022/02/18 05:44:19;;;;;;;26.07;3.73;;;;;;;2.87;100.00;99875.50;5015934;28;20041;-80
2022/02/18 05:46:44;;;;;;;23.53;4.90;;;;;;;2.79;100.00;99868.25;5016165;28;20299;-79
2022/02/18 05:49:10;;;;;;;22.10;3.60;;;;;;;2.81;100.00;99874.22;5016037;28;20082;-79
2022/02/18 05:51:36;;;;;;;29.08;7.22;;;;;;;2.77;100.00;99864.91;5031310;28;20132;-79
2022/02/18 05:54:02;;;;;;;26.60;4.53;;;;;;;2.71;100.00;99854.91;5031964;28;20038;-80
2022/02/18 05:56:27;;;;;;;24.55;4.10;;;;;;;2.80;100.00;99853.25;5049497;28;20035;-79
2022/02/18 05:58:53;;;;;;;22.10;3.53;;;;;;;2.88;100.00;99869.22;5015692;28;20046;-80
2022/02/18 06:01:20;;;;;;;19.30;4.93;;;;;;;2.80;100.00;99853.25;5032534;28;20061;-78
2022/02/18 06:03:49;;;;;;;28.20;5.57;;;;;;;2.81;100.00;99861.06;5016100;28;20022;-79
2022/02/18 06:06:16;;;;;;;29.48;5.78;;;;;;;2.77;100.00;99853.53;5016063;28;20402;-78
2022/02/18 06:08:42;;;;;;;25.77;4.55;;;;;;;2.71;100.00;99854.91;5032571;28;20423;-79
2022/02/18 06:11:08;;;;;;;24.85;6.10;;;;;;;2.69;100.00;99847.16;5032254;28;20115;-79
2022/02/18 06:13:33;;;;;;;31.43;5.40;;;;;;;2.80;100.00;99861.19;5032016;28;20351;-79
2022/02/18 06:15:59;;;;;;;24.38;3.70;;;;;;;2.72;100.00;99854.78;5015296;28;20033;-79
2022/02/18 06:18:25;;;;;;;23.80;3.83;;;;;;;2.68;100.00;99840.19;5033912;28;20037;-78
2022/02/18 06:20:50;;;;;;;28.67;5.60;;;;;;;2.71;100.00;99852.25;5032672;28;20029;-80
2022/02/18 06:23:16;;;;;;;23.90;3.28;;;;;;;2.69;100.00;99843.66;5049271;28;20483;-79
2022/02/18 06:25:41;;;;;;;18.50;3.07;;;;;;;2.68;100.00;99844.63;5019619;28;20428;-79
2022/02/18 06:28:13;;;;;;;28.33;4.37;;;;;;;2.72;100.00;99846.03;5053125;28;20772;-79
2022/02/18 06:30:40;;;;;;;21.90;4.60;;;;;;;2.79;100.00;99848.97;5036162;28;20288;-79
2022/02/18 06:33:06;;;;;;;21.65;4.38;;;;;;;2.78;100.00;99848.13;5019710;28;20021;-79
2022/02/18 06:35:33;;;;;;;23.25;4.10;;;;;;;2.79;100.00;99849.81;5052369;28;20056;-80
2022/02/18 06:37:58;;;;;;;27.23;3.40;;;;;;;2.71;100.00;99844.34;5036663;28;20490;-80
2022/02/18 06:40:24;;;;;;;26.03;5.70;;;;;;;2.80;100.00;99845.34;5036008;28;20037;-79
2022/02/18 06:42:49;;;;;;;15.30;3.87;;;;;;;2.50;100.00;99799.63;5052426;28;20494;-80
2022/02/18 06:45:17;;;;;;;30.70;4.87;;;;;;;2.79;100.00;99838.44;5036632;28;20064;-79
2022/02/18 06:47:50;;;;;;;27.40;4.35;;;;;;;2.71;100.00;99823.28;5020789;28;20029;-79
2022/02/18 06:50:17;;;;;;;35.63;5.30;;;;;;;2.68;100.00;99818.28;5052882;28;20160;-79
2022/02/18 06:52:44;;;;;;;16.55;2.90;;;;;;;2.71;100.00;99815.34;5052049;28;20038;-79
2022/02/18 06:55:10;;;;;;;29.35;4.53;;;;;;;2.78;100.00;99819.13;5019504;28;20022;-79
2022/02/18 06:57:44;;;;;;;30.23;3.92;;;;;;;2.73;100.00;99819.53;5019622;28;20116;-79
2022/02/18 07:00:13;;;;;;;15.65;2.88;;;;;;;2.72;100.00;99815.25;5051825;28;20103;-79
2022/02/18 07:02:39;;;;;;;23.27;3.08;;;;;;;2.74;100.00;99812.47;5035976;28;20025;-79
2022/02/18 07:05:05;;;;;;;;;;;;;;;2.75;100.00;99806.22;5019278;28;20088;-80
2022/02/18 07:07:31;;;;;;;12.90;2.40;;;;;;;2.73;100.00;99792.34;5018626;28;20345;-79
2022/02/18 07:09:56;;;;;;;21.20;4.67;;;;;;;2.70;100.00;99784.72;5036018;28;20036;-78
2022/02/18 07:12:25;;;;;;;13.07;2.57;;;;;;;2.74;100.00;99775.56;5035166;28;20033;-80
2022/02/18 07:14:54;;;;;;;26.13;2.60;;;;;;;2.77;100.00;99774.47;5039806;28;20030;-79
2022/02/18 07:17:27;;;;;;;13.38;2.92;;;;;;;2.76;100.00;99768.34;5015496;28;20022;-79
2022/02/18 07:19:54;;;;;;;14.30;3.00;;;;;;;2.75;100.00;99761.41;5016460;28;20752;-79
2022/02/18 07:22:20;;;;;;;;;;;;;;;2.82;100.00;99759.06;5015787;28;20034;-79
2022/02/18 07:24:47;;;;;;;25.13;4.18;;;;;;;2.76;100.00;99744.63;4998936;28;20445;-79
2022/02/18 07:27:13;;;;;;;16.10;2.42;;;;;;;2.86;100.00;99750.75;5015645;28;20475;-79
2022/02/18 07:29:38;;;;;;;22.92;4.18;;;;;;;2.83;100.00;99737.81;5015066;28;20088;-79
2022/02/18 07:32:04;;;;;;;20.00;3.80;;;;;;;2.72;100.00;99722.16;4999516;28;20037;-79
2022/02/18 07:34:30;;;;;;;17.73;3.38;;;;;;;2.79;100.00;99723.28;4998915;28;20037;-79
2022/02/18 07:36:55;;;;;;;28.00;5.33;;;;;;;2.83;100.00;99727.28;4996919;28;20483;-78
2022/02/18 07:39:21;;;;;;;13.35;3.55;;;;;;;2.82;100.00;99715.09;5015251;28;20034;-78
2022/02/18 07:41:46;;;;;;;21.15;3.78;;;;;;;2.86;100.00;99705.09;4997899;28;20551;-78
2022/02/18 07:44:11;;;;;;;14.37;3.30;;;;;;;2.87;100.00;99704.94;4998139;28;20196;-78
2022/02/18 07:46:37;;;;;;;14.03;3.30;;;;;;;2.90;100.00;99701.19;5014622;28;20033;-80
2022/02/18 07:49:02;;;;;;;18.63;3.08;;;;;;;2.89;100.00;99694.28;4997576;28;20284;-79
2022/02/18 07:51:28;;;;;;;13.07;2.63;;;;;;;2.81;100.00;99683.56;4996998;28;20033;-80
2022/02/18 07:53:53;;;;;;;20.55;3.13;;;;;;;2.94;100.00;99687.59;4997094;28;20033;-80
2022/02/18 07:56:19;;;;;;;15.60;3.60;;;;;;;2.94;100.00;99670.97;5014270;28;20117;-79
2022/02/18 07:58:44;;;;;;;16.25;2.70;;;;;;;2.90;100.00;99657.25;5014125;28;20069;-79
2022/02/18 08:01:17;;;;;;;17.47;2.63;;;;;;;2.86;100.00;99644.47;4997527;28;20026;-79
2022/02/18 08:03:43;;;;;;;33.90;6.50;;;;;;;2.92;100.00;99655.25;4997680;28;20034;-78
2022/02/18 08:06:09;;;;;;;17.02;3.55;;;;;;;2.99;100.00;99645.00;5014853;28;20018;-78
2022/02/18 08:08:36;;;;;;;23.27;3.08;;;;;;;2.86;100.00;99621.56;5014871;28;20145;-79
2022/02/18 08:11:03;;;;;;;17.30;3.45;;;;;;;2.98;100.00;99631.97;4996662;28;20037;-79
2022/02/18 08:13:29;;;;;;;16.20;3.13;;;;;;;3.10;100.00;99633.47;5012793;28;20030;-78
2022/02/18 08:15:54;;;;;;;12.88;2.78;;;;;;;3.17;100.00;99645.13;4996348;28;20036;-78
2022/02/18 08:18:20;;;;;;;12.13;3.67;;;;;;;3.05;100.00;99620.72;4996375;28;20069;-79
2022/02/18 08:20:48;;;;;;;9.00;2.75;;;;;;;3.12;100.00;99624.44;4996596;28;20513;-78
2022/02/18 08:23:14;;;;;;;26.45;5.00;;;;;;;3.17;100.00;99616.94;5012108;28;20038;-78
2022/02/18 08:25:39;;;;;;;26.00;4.72;;;;;;;3.19;100.00;99618.59;4995553;28;20018;-78
2022/02/18 08:28:05;;;;;;;15.00;3.70;;;;;;;3.12;100.00;99615.69;4995534;28;20034;-78
2022/02/18 08:30:30;;;;;;;18.27;3.35;;;;;;;2.99;100.00;99594.91;5010859;28;20029;-79
2022/02/18 08:32:56;;;;;;;27.73;4.03;;;;;;;3.27;100.00;99613.44;5028077;28;20042;-78
2022/02/18 08:35:22;;;;;;;28.25;4.68;;;;;;;3.30;100.00;99615.78;5011667;28;20028;-78
2022/02/18 08:37:47;;;;;;;13.10;3.00;;;;;;;3.29;100.00;99600.94;4994922;28;20072;-78
2022/02/18 08:40:12;;;;;;;15.97;3.40;;;;;;;3.24;100.00;99588.19;4994593;28;20303;-78
2022/02/18 08:42:38;;;;;;;20.33;3.22;;;;;;;3.23;100.00;99581.25;5010817;28;20746;-78
2022/02/18 08:45:05;;;;;;;15.40;4.05;;;;;;;3.26;100.00;99573.03;4994263;28;20053;-77
2022/02/18 08:47:30;;;;;;;;;;;;;;;3.31;100.00;99565.53;4994655;28;20554;-78
2022/02/18 08:49:55;;;;;;;19.65;4.03;;;;;;;3.38;100.00;99563.97;5010489;28;20012;-79
2022/02/18 08:52:21;;;;;;;16.13;3.97;;;;;;;3.31;100.00;99547.06;5012514;28;20061;-79
2022/02/18 08:54:46;;;;;;;18.02;5.45;;;;;;;3.34;100.00;99544.13;5010844;28;20030;-78
2022/02/18 08:57:12;;;;;;;13.20;4.03;;;;;;;3.36;100.00;99539.53;5010446;28;20033;-78
2022/02/18 08:59:41;;;;;;;16.37;4.30;;;;;;;3.38;100.00;99534.94;4994486;28;20408;-78
2022/02/18 09:02:09;;;;;;;22.45;4.07;;;;;;;3.42;100.00;99538.13;5010654;28;20044;-78
2022/02/18 09:04:34;;;;;;;18.77;4.85;;;;;;;3.41;100.00;99530.34;4994137;28;20025;-78
2022/02/18 09:07:00;;;;;;;20.05;5.35;;;;;;;3.44;100.00;99514.22;5010050;28;20037;-78
2022/02/18 09:09:25;;;;;;;18.98;4.38;;;;;;;3.53;100.00;99529.16;5026476;28;20699;-78
2022/02/18 09:11:51;;;;;;;17.63;4.57;;;;;;;3.38;100.00;99521.75;5041938;22;20044;-78
2022/02/18 09:14:16;;;;;;;16.87;4.07;;;;;;;3.42;100.00;99527.56;5039460;28;20272;-78
2022/02/18 09:16:47;;;;;;;19.90;4.80;;;;;;;3.52;100.00;99512.50;5037654;28;20608;-78
2022/02/18 09:19:12;;;;;;;21.23;5.45;;;;;;;3.60;100.00;99514.41;5032270;28;20056;-78
2022/02/18 09:21:38;;;;;;;18.43;5.13;;;;;;;3.52;100.00;99507.25;5015604;28;20083;-78
2022/02/18 09:24:05;;;;;;;16.17;5.05;;;;;;;3.50;100.00;99493.34;5031782;28;20030;-78
2022/02/18 09:26:30;;;;;;;17.85;5.00;;;;;;;3.57;100.00;99489.16;5033908;28;20025;-78
2022/02/18 09:28:59;;;;;;;13.23;4.68;;;;;;;3.70;100.00;99486.16;5031904;28;20052;-78
2022/02/18 09:31:25;;;;;;;17.37;4.47;;;;;;;3.69;100.00;99475.75;5048639;28;20108;-78
2022/02/18 09:33:52;;;;;;;25.42;6.57;;;;;;;3.67;100.00;99454.75;5031854;28;20652;-78
2022/02/18 09:36:18;;;;;;;19.33;5.75;;;;;;;3.57;100.00;99441.63;5032209;28;20029;-78
2022/02/18 09:38:43;;;;;;;22.00;4.43;;;;;;;3.61;100.00;99444.00;5048346;28;20095;-78
2022/02/18 09:41:09;;;;;;;13.50;5.07;;;;;;;3.73;100.00;99451.53;5032224;28;20033;-78
2022/02/18 09:43:36;;;;;;;14.33;5.23;;;;;;;3.75;100.00;99444.31;5048637;28;20043;-78
2022/02/18 09:46:04;;;;;;;25.38;4.60;;;;;;;3.65;100.00;99432.97;5031569;28;20031;-77
2022/02/18 09:48:30;;;;;;;20.17;6.07;;;;;;;3.77;100.00;99425.69;5048094;28;20497;-78
2022/02/18 09:50:56;;;;;;;16.15;4.13;;;;;;;3.76;100.00;99416.91;5015084;28;20063;-77
2022/02/18 09:53:22;;;;;;;20.42;5.57;;;;;;;3.60;100.00;99379.81;5048031;28;20029;-78
2022/02/18 09:55:49;;;;;;;13.15;3.72;;;;;;;3.89;100.00;99397.25;5031069;28;20017;-78
2022/02/18 09:58:22;;;;;;;11.98;4.95;;;;;;;3.82;100.00;99391.72;5032278;28;20406;-77
2022/02/18 10:00:50;;;;;;;20.48;4.65;;;;;;;3.78;100.00;99378.00;5031095;28;20037;-77
2022/02/18 10:03:19;;;;;;;16.63;5.03;;;;;;;3.90;100.00;99367.19;5031901;28;20029;-77
2022/02/18 10:05:44;;;;;;;22.42;5.13;;;;;;;3.96;100.00;99358.69;5048233;28;20033;-77
2022/02/18 10:08:15;;;;;;;15.17;3.80;;;;;;;3.97;100.00;99352.41;5048350;28;20031;-78
2022/02/18 10:10:42;;;;;;;14.05;4.40;;;;;;;4.08;100.00;99346.03;5031533;28;20132;-77
2022/02/18 10:13:29;;;;;;;17.33;4.43;;;;;;;4.02;100.00;99339.56;5031760;28;20035;-78
2022/02/18 10:15:56;;;;;;;17.52;4.45;;;;;;;4.06;100.00;99326.88;5048399;28;20034;-78
2022/02/18 10:18:22;;;;;;;19.83;4.95;;;;;;;4.17;100.00;99324.81;5048925;28;20120;-77
2022/02/18 10:20:49;;;;;;;26.23;6.28;;;;;;;4.19;100.00;99306.13;5031784;28;20475;-78
2022/02/18 10:23:18;;;;;;;19.08;5.63;;;;;;;4.21;100.00;99305.03;5033654;28;20502;-78
2022/02/18 10:25:46;;;;;;;25.60;6.32;;;;;;;4.17;100.00;99290.47;5048857;28;20041;-78
2022/02/18 10:28:13;;;;;;;32.03;6.35;;;;;;;4.11;100.00;99277.88;5048952;28;20021;-78
2022/02/18 10:30:39;;;;;;;24.05;5.65;;;;;;;4.19;100.00;99280.56;5031981;28;20167;-78
2022/02/18 10:33:16;;;;;;;21.58;4.95;;;;;;;4.09;100.00;99271.91;5031390;28;20120;-79
2022/02/18 10:35:43;;;;;;;24.05;5.65;;;;;;;4.02;100.00;99265.59;5033748;28;20037;-79
2022/02/18 10:38:09;;;;;;;17.35;5.78;;;;;;;3.96;100.00;99256.50;5049015;28;20180;-79
2022/02/18 10:40:49;;;;;;;18.92;6.00;;;;;;;3.90;100.00;99251.84;5032332;28;20057;-80
2022/02/18 10:43:25;;;;;;;20.08;6.43;;;;;;;3.73;100.00;99235.06;5032249;28;20053;-80
2022/02/18 10:45:53;;;;;;;27.20;7.32;;;;;;;3.89;100.00;99255.47;5015694;28;20030;-80
2022/02/18 10:48:20;;;;;;;28.63;7.30;;;;;;;3.77;100.00;99235.59;5033634;28;20033;-80
2022/02/18 10:51:07;;;;;;;33.92;8.02;;;;;;;3.66;100.00;99239.31;5049543;28;20069;-79
2022/02/18 10:53:43;;;;;;;18.98;6.55;;;;;;;3.63;100.00;99233.50;5050503;28;20124;-80
2022/02/18 10:56:11;;;;;;;27.73;6.72;;;;;;;3.64;100.00;99245.75;5017903;28;20042;-80
2022/02/18 10:58:43;;;;;;;30.90;7.65;;;;;;;3.57;100.00;99234.97;5033669;28;20029;-80
2022/02/18 11:01:23;;;;;;;32.10;8.15;;;;;;;3.44;100.00;99224.84;5033598;28;20044;-79
2022/02/18 11:03:49;;;;;;;23.52;9.25;;;;;;;3.56;100.00;99222.78;5032649;28;20029;-79
2022/02/18 11:06:23;;;;;;;26.30;8.27;;;;;;;3.42;100.00;99205.69;5033134;28;20030;-81
2022/02/18 11:08:57;;;;;;;25.00;10.07;;;;;;;3.52;100.00;99213.50;5032634;28;20501;-81
2022/02/18 11:11:44;;;;;;;28.35;7.47;;;;;;;3.56;100.00;99202.47;5035889;28;20029;-81
2022/02/18 11:14:16;;;;;;;28.15;8.65;;;;;;;3.41;100.00;99187.34;5036247;28;20537;-82
2022/02/18 11:16:44;;;;;;;21.13;7.20;;;;;;;3.43;100.00;99178.31;5020397;28;20041;-82
2022/02/18 11:19:10;;;;;;;31.27;7.78;;;;;;;3.43;100.00;99170.38;5020014;28;20466;-83
2022/02/18 11:21:35;;;;;;;22.55;7.88;;;;;;;3.53;100.00;99159.72;5037179;28;20041;-82
2022/02/18 11:24:03;;;;;;;22.23;7.83;;;;;;;3.47;100.00;99149.81;5036449;28;20105;-80
2022/02/18 11:26:30;;;;;;;17.40;6.68;;;;;;;3.37;100.00;99140.19;5035934;28;20084;-81
2022/02/18 11:28:58;;;;;;;18.42;6.35;;;;;;;3.43;100.00;99133.44;5019508;28;20026;-82